createdAt,value
2019-01-10T00:00:07.949Z,4.60
2019-01-10T00:01:07.907Z,4.60
2019-01-10T00:02:07.877Z,4.70
2019-01-10T00:03:07.840Z,5.00
2019-01-10T00:04:07.795Z,4.50
2019-01-10T00:05:07.717Z,4.50
2019-01-10T00:06:07.734Z,4.40
2019-01-10T00:07:07.668Z,4.50
2019-01-10T00:08:07.668Z,4.00
2019-01-10T00:09:07.584Z,4.10
2019-01-10T00:10:07.544Z,4.50
2019-01-10T00:11:07.472Z,4.30
2019-01-10T00:12:07.473Z,4.20
2019-01-10T00:13:07.480Z,4.30
2019-01-10T00:14:07.382Z,4.50
2019-01-10T00:15:07.321Z,4.80
2019-01-10T00:16:07.266Z,4.50
2019-01-10T00:17:07.171Z,4.60
2019-01-10T00:18:07.082Z,4.20
2019-01-10T00:19:07.110Z,4.20
2019-01-10T00:20:07.024Z,4.50
2019-01-10T00:21:07.003Z,4.90
2019-01-10T00:22:06.952Z,4.70
2019-01-10T00:23:06.925Z,4.30
2019-01-10T00:24:06.892Z,4.40
2019-01-10T00:25:06.788Z,4.20
2019-01-10T00:26:06.747Z,5.00
2019-01-10T00:27:06.672Z,5.00
2019-01-10T00:28:06.636Z,4.90
2019-01-10T00:29:06.588Z,3.90
2019-01-10T00:30:06.618Z,4.70
2019-01-10T00:31:06.568Z,4.70
2019-01-10T00:32:06.515Z,5.10
2019-01-10T00:33:06.477Z,4.40
2019-01-10T00:34:06.415Z,4.30
2019-01-10T00:35:07.213Z,5.20
2019-01-10T00:36:06.303Z,4.60
2019-01-10T00:37:06.217Z,4.20
2019-01-10T00:38:06.192Z,4.90
2019-01-10T00:39:06.162Z,4.80
2019-01-10T00:40:06.138Z,4.70
2019-01-10T00:41:06.079Z,5.00
2019-01-10T00:42:05.992Z,4.80
2019-01-10T00:43:05.969Z,4.50
2019-01-10T00:44:05.930Z,4.40
2019-01-10T00:45:06.055Z,4.60
2019-01-10T00:46:05.811Z,4.50
2019-01-10T00:47:05.796Z,4.80
2019-01-10T00:48:05.764Z,4.60
2019-01-10T00:49:05.685Z,4.50
2019-01-10T00:50:05.737Z,4.70
2019-01-10T00:51:05.631Z,5.00
2019-01-10T00:52:05.509Z,4.70
2019-01-10T00:53:05.512Z,4.50
2019-01-10T00:54:05.431Z,4.60
2019-01-10T00:55:05.410Z,4.90
2019-01-10T00:56:05.420Z,4.90
2019-01-10T00:57:05.289Z,4.80
2019-01-10T00:58:05.229Z,4.40
2019-01-10T00:59:05.197Z,5.00
2019-01-10T01:00:05.159Z,4.80
2019-01-10T01:01:05.133Z,4.90
2019-01-10T01:02:05.046Z,5.00
2019-01-10T01:03:05.036Z,4.70
2019-01-10T01:04:04.975Z,5.00
2019-01-10T01:05:04.938Z,5.20
2019-01-10T01:06:04.990Z,4.80
2019-01-10T01:07:04.869Z,5.10
2019-01-10T01:08:04.794Z,5.00
2019-01-10T01:09:04.788Z,5.00
2019-01-10T01:10:04.768Z,5.00
2019-01-10T01:11:04.672Z,5.30
2019-01-10T01:12:04.596Z,4.70
2019-01-10T01:13:04.574Z,5.00
2019-01-10T01:14:04.496Z,5.50
2019-01-10T01:15:04.467Z,5.10
2019-01-10T01:16:04.401Z,5.20
2019-01-10T01:17:04.408Z,4.90
2019-01-10T01:18:04.320Z,5.20
2019-01-10T01:19:04.309Z,5.60
2019-01-10T01:20:04.227Z,5.30
2019-01-10T01:21:04.196Z,5.10
2019-01-10T01:22:04.165Z,5.00
2019-01-10T01:23:04.093Z,4.90
2019-01-10T01:24:04.009Z,5.40
2019-01-10T01:25:03.969Z,5.10
2019-01-10T01:26:03.977Z,4.70
2019-01-10T01:27:03.925Z,4.90
2019-01-10T01:28:03.825Z,5.40
2019-01-10T01:29:03.864Z,5.30
2019-01-10T01:30:03.728Z,5.70
2019-01-10T01:31:03.696Z,5.40
2019-01-10T01:32:03.685Z,5.20
2019-01-10T01:33:03.637Z,5.50
2019-01-10T01:34:03.564Z,4.90
2019-01-10T01:35:03.517Z,5.20
2019-01-10T01:36:03.477Z,4.80
2019-01-10T01:37:03.454Z,5.00
2019-01-10T01:38:03.423Z,5.40
2019-01-10T01:39:03.394Z,5.40
2019-01-10T01:40:03.344Z,5.40
2019-01-10T01:41:03.268Z,5.10
2019-01-10T01:42:03.201Z,5.10
2019-01-10T01:43:07.437Z,5.20
2019-01-10T01:44:03.116Z,5.40
2019-01-10T01:45:03.128Z,4.80
2019-01-10T01:46:02.975Z,5.50
2019-01-10T01:47:02.939Z,5.20
2019-01-10T01:48:02.950Z,5.60
2019-01-10T01:49:02.886Z,4.90
2019-01-10T01:50:02.852Z,5.30
2019-01-10T01:51:02.786Z,5.30
2019-01-10T01:52:02.698Z,5.30
2019-01-10T01:53:13.055Z,5.40
2019-01-10T01:55:43.187Z,5.60
2019-01-10T01:56:42.564Z,5.60
2019-01-10T01:57:43.018Z,5.00
2019-01-10T01:58:42.570Z,5.00
2019-01-10T01:59:42.455Z,5.40
2019-01-10T02:00:42.356Z,5.70
2019-01-10T02:01:42.372Z,5.40
2019-01-10T02:02:42.281Z,5.10
2019-01-10T02:03:42.224Z,5.40
2019-01-10T02:04:42.124Z,5.30
2019-01-10T02:05:42.167Z,5.70
2019-01-10T02:06:42.193Z,5.20
2019-01-10T02:07:42.033Z,5.90
2019-01-10T02:08:41.989Z,5.40
2019-01-10T02:09:41.902Z,5.40
2019-01-10T02:10:41.839Z,5.50
2019-01-10T02:11:41.860Z,5.50
2019-01-10T02:12:41.732Z,5.40
2019-01-10T02:13:41.872Z,5.40
2019-01-10T02:14:41.666Z,5.50
2019-01-10T02:15:41.790Z,5.60
2019-01-10T02:16:41.619Z,5.10
2019-01-10T02:17:48.740Z,5.20
2019-01-10T02:18:41.499Z,5.60
2019-01-10T02:19:41.412Z,5.40
2019-01-10T02:20:41.407Z,5.50
2019-01-10T02:21:41.311Z,5.10
2019-01-10T02:22:41.324Z,5.50
2019-01-10T02:23:41.268Z,5.60
2019-01-10T02:24:41.223Z,5.90
2019-01-10T02:25:41.153Z,5.30
2019-01-10T02:26:41.077Z,5.70
2019-01-10T02:27:41.103Z,5.20
2019-01-10T02:28:40.974Z,6.10
2019-01-10T02:29:40.936Z,5.70
2019-01-10T02:30:42.261Z,5.90
2019-01-10T02:31:40.907Z,5.60
2019-01-10T02:32:40.809Z,5.70
2019-01-10T02:33:40.910Z,5.30
2019-01-10T02:34:40.693Z,5.20
2019-01-10T02:35:40.653Z,5.40
2019-01-10T02:36:40.591Z,5.80
2019-01-10T02:37:40.588Z,5.20
2019-01-10T02:38:40.687Z,5.00
2019-01-10T02:39:40.454Z,5.30
2019-01-10T02:40:40.488Z,5.20
2019-01-10T02:41:40.350Z,5.40
2019-01-10T02:42:40.312Z,5.60
2019-01-10T02:43:40.264Z,5.50
2019-01-10T02:44:40.245Z,5.40
2019-01-10T02:45:40.186Z,5.10
2019-01-10T02:46:40.169Z,5.40
2019-01-10T02:47:40.092Z,5.80
2019-01-10T02:48:40.021Z,5.70
2019-01-10T02:49:39.970Z,5.30
2019-01-10T02:50:39.899Z,5.70
2019-01-10T02:51:39.928Z,5.30
2019-01-10T02:52:39.862Z,5.60
2019-01-10T02:53:39.810Z,5.90
2019-01-10T02:54:39.770Z,5.50
2019-01-10T02:55:39.685Z,5.80
2019-01-10T02:56:39.672Z,5.60
2019-01-10T02:57:39.647Z,5.80
2019-01-10T02:58:39.601Z,5.60
2019-01-10T02:59:39.502Z,5.70
2019-01-10T03:00:39.462Z,5.70
2019-01-10T03:01:39.428Z,6.00
2019-01-10T03:02:39.392Z,5.70
2019-01-10T03:03:39.332Z,5.40
2019-01-10T03:04:39.280Z,6.20
2019-01-10T03:05:39.218Z,5.40
2019-01-10T03:06:39.155Z,6.20
2019-01-10T03:07:39.131Z,5.70
2019-01-10T03:08:39.068Z,5.70
2019-01-10T03:09:39.024Z,5.80
2019-01-10T03:10:38.972Z,6.10
2019-01-10T03:11:38.940Z,6.10
2019-01-10T03:12:38.928Z,5.90
2019-01-10T03:13:38.818Z,6.20
2019-01-10T03:14:38.823Z,6.10
2019-01-10T03:15:38.763Z,5.90
2019-01-10T03:16:38.684Z,6.20
2019-01-10T03:17:38.702Z,6.10
2019-01-10T03:18:38.656Z,6.10
2019-01-10T03:19:38.546Z,5.50
2019-01-10T03:20:38.493Z,5.60
2019-01-10T03:21:38.453Z,5.90
2019-01-10T03:22:38.403Z,5.80
2019-01-10T03:23:38.349Z,5.50
2019-01-10T03:24:38.334Z,5.80
2019-01-10T03:25:38.268Z,6.40
2019-01-10T03:26:38.220Z,6.00
2019-01-10T03:27:38.158Z,5.60
2019-01-10T03:28:38.111Z,6.30
2019-01-10T03:29:38.102Z,5.90
2019-01-10T03:30:38.022Z,6.00
2019-01-10T03:31:37.981Z,5.80
2019-01-10T03:32:37.935Z,5.90
2019-01-10T03:33:37.883Z,6.00
2019-01-10T03:34:37.859Z,6.10
2019-01-10T03:35:37.793Z,6.00
2019-01-10T03:36:37.751Z,6.30
2019-01-10T03:37:37.695Z,6.10
2019-01-10T03:38:37.659Z,5.90
2019-01-10T03:39:37.608Z,6.20
2019-01-10T03:40:37.606Z,6.10
2019-01-10T03:41:37.510Z,6.30
2019-01-10T03:42:37.472Z,6.10
2019-01-10T03:43:46.556Z,6.10
2019-01-10T03:44:37.361Z,5.90
2019-01-10T03:45:37.354Z,5.90
2019-01-10T03:46:37.291Z,6.20
2019-01-10T03:47:37.228Z,5.90
2019-01-10T03:48:37.181Z,5.60
2019-01-10T03:49:37.152Z,6.30
2019-01-10T03:50:37.980Z,5.90
2019-01-10T03:51:37.058Z,5.80
2019-01-10T03:52:37.003Z,6.20
2019-01-10T03:53:36.975Z,5.90
2019-01-10T03:54:36.919Z,5.80
2019-01-10T03:55:36.863Z,6.30
2019-01-10T03:56:36.845Z,5.70
2019-01-10T03:57:36.771Z,6.00
2019-01-10T03:58:36.721Z,6.40
2019-01-10T03:59:36.679Z,6.20
2019-01-10T04:00:36.675Z,6.40
2019-01-10T04:01:36.603Z,5.70
2019-01-10T04:02:36.526Z,6.50
2019-01-10T04:03:36.499Z,6.10
2019-01-10T04:04:45.585Z,6.40
2019-01-10T04:05:45.582Z,6.40
2019-01-10T04:06:36.369Z,5.90
2019-01-10T04:07:36.298Z,5.90
2019-01-10T04:08:36.255Z,5.80
2019-01-10T04:09:36.221Z,5.80
2019-01-10T04:10:36.162Z,6.10
2019-01-10T04:11:36.119Z,6.10
2019-01-10T04:12:36.070Z,6.10
2019-01-10T04:13:36.008Z,5.60
2019-01-10T04:14:35.989Z,6.10
2019-01-10T04:15:35.917Z,6.10
2019-01-10T04:16:35.892Z,5.90
2019-01-10T04:17:35.818Z,5.90
2019-01-10T04:18:35.775Z,6.20
2019-01-10T04:19:35.733Z,6.30
2019-01-10T04:20:35.707Z,5.60
2019-01-10T04:21:35.636Z,6.40
2019-01-10T04:22:35.619Z,6.30
2019-01-10T04:23:35.544Z,5.50
2019-01-10T04:24:35.505Z,5.80
2019-01-10T04:25:35.449Z,5.50
2019-01-10T04:26:35.417Z,5.90
2019-01-10T04:27:35.387Z,5.70
2019-01-10T04:28:35.309Z,6.20
2019-01-10T04:29:35.266Z,6.20
2019-01-10T04:30:35.219Z,6.40
2019-01-10T04:31:35.184Z,5.80
2019-01-10T04:32:35.168Z,6.30
2019-01-10T04:33:35.082Z,6.20
2019-01-10T04:34:35.044Z,5.80
2019-01-10T04:35:34.991Z,6.30
2019-01-10T04:36:34.937Z,6.10
2019-01-10T04:37:34.881Z,6.00
2019-01-10T04:38:34.906Z,5.80
2019-01-10T04:39:34.806Z,6.00
2019-01-10T04:40:34.758Z,5.80
2019-01-10T04:41:34.711Z,6.10
2019-01-10T04:42:34.688Z,6.00
2019-01-10T04:43:34.639Z,6.10
2019-01-10T04:44:34.555Z,5.90
2019-01-10T04:45:34.510Z,5.50
2019-01-10T04:46:34.469Z,5.90
2019-01-10T04:47:34.443Z,6.10
2019-01-10T04:48:34.422Z,5.90
2019-01-10T04:49:34.323Z,6.00
2019-01-10T04:50:34.287Z,6.00
2019-01-10T04:51:34.236Z,6.00
2019-01-10T04:52:34.196Z,5.70
2019-01-10T04:53:34.147Z,6.20
2019-01-10T04:54:38.202Z,6.20
2019-01-10T04:55:34.053Z,6.10
2019-01-10T04:56:34.000Z,6.00
2019-01-10T04:57:33.956Z,5.90
2019-01-10T04:58:33.922Z,6.00
2019-01-10T04:59:33.898Z,5.80
2019-01-10T05:00:33.837Z,6.00
2019-01-10T05:01:33.811Z,5.90
2019-01-10T05:02:33.732Z,5.70
2019-01-10T05:03:33.671Z,5.80
2019-01-10T05:04:33.683Z,5.90
2019-01-10T05:05:33.608Z,5.70
2019-01-10T05:06:33.570Z,5.70
2019-01-10T05:07:33.508Z,6.30
2019-01-10T05:08:33.441Z,6.00
2019-01-10T05:09:33.395Z,5.70
2019-01-10T05:10:33.414Z,6.20
2019-01-10T05:11:33.317Z,6.40
2019-01-10T05:12:33.280Z,6.20
2019-01-10T05:13:33.226Z,6.40
2019-01-10T05:14:33.170Z,6.50
2019-01-10T05:15:33.136Z,6.40
2019-01-10T05:16:33.081Z,6.40
2019-01-10T05:17:33.043Z,6.50
2019-01-10T05:18:32.996Z,6.00
2019-01-10T05:19:32.938Z,6.20
2019-01-10T05:20:32.912Z,6.00
2019-01-10T05:21:32.840Z,6.10
2019-01-10T05:22:32.798Z,5.80
2019-01-10T05:23:32.771Z,5.90
2019-01-10T05:24:32.714Z,6.20
2019-01-10T05:25:32.659Z,6.30
2019-01-10T05:26:32.639Z,6.30
2019-01-10T05:27:32.569Z,6.00
2019-01-10T05:28:32.527Z,6.20
2019-01-10T05:29:32.465Z,6.20
2019-01-10T05:30:32.436Z,6.20
2019-01-10T05:31:32.383Z,5.90
2019-01-10T05:32:32.386Z,6.50
2019-01-10T05:33:32.282Z,6.20
2019-01-10T05:34:32.229Z,6.80
2019-01-10T05:35:32.187Z,6.20
2019-01-10T05:36:32.179Z,6.80
2019-01-10T05:37:32.149Z,5.70
2019-01-10T05:38:32.041Z,6.40
2019-01-10T05:39:32.033Z,7.00
2019-01-10T05:40:31.959Z,6.50
2019-01-10T05:41:31.916Z,6.50
2019-01-10T05:42:31.886Z,6.90
2019-01-10T05:43:31.862Z,6.40
2019-01-10T05:44:31.773Z,6.70
2019-01-10T05:45:31.734Z,6.40
2019-01-10T05:46:31.684Z,6.50
2019-01-10T05:47:31.656Z,6.40
2019-01-10T05:48:31.593Z,6.20
2019-01-10T05:49:31.569Z,6.50
2019-01-10T05:50:31.510Z,6.80
2019-01-10T05:51:31.463Z,6.20
2019-01-10T05:52:31.410Z,6.50
2019-01-10T05:53:31.383Z,6.10
2019-01-10T05:54:31.307Z,6.40
2019-01-10T05:55:31.274Z,6.50
2019-01-10T05:56:31.217Z,6.70
2019-01-10T05:57:31.198Z,6.90
2019-01-10T05:58:31.126Z,6.60
2019-01-10T05:59:31.068Z,6.60
2019-01-10T06:00:31.011Z,7.20
2019-01-10T06:01:31.002Z,7.30
2019-01-10T06:02:30.931Z,7.30
2019-01-10T06:03:30.923Z,7.30
2019-01-10T06:04:30.844Z,7.60
2019-01-10T06:05:30.780Z,7.30
2019-01-10T06:06:30.725Z,7.90
2019-01-10T06:07:30.689Z,8.10
2019-01-10T06:08:30.663Z,8.40
2019-01-10T06:09:30.594Z,8.00
2019-01-10T06:10:30.563Z,8.20
2019-01-10T06:11:30.506Z,7.80
2019-01-10T06:12:30.496Z,7.80
2019-01-10T06:13:30.393Z,7.90
2019-01-10T06:14:35.514Z,8.10
2019-01-10T06:15:30.318Z,7.40
2019-01-10T06:16:30.261Z,7.60
2019-01-10T06:17:30.237Z,7.90
2019-01-10T06:18:30.178Z,7.90
2019-01-10T06:19:30.159Z,7.90
2019-01-10T06:20:30.075Z,7.40
2019-01-10T06:21:30.048Z,7.40
2019-01-10T06:22:30.019Z,7.60
2019-01-10T06:23:29.945Z,7.60
2019-01-10T06:24:29.901Z,7.20
2019-01-10T06:25:29.883Z,7.60
2019-01-10T06:26:29.811Z,7.60
2019-01-10T06:27:29.754Z,7.70
2019-01-10T06:28:29.699Z,7.60
2019-01-10T06:29:29.656Z,7.50
2019-01-10T06:30:29.602Z,7.40
2019-01-10T06:31:29.583Z,8.10
2019-01-10T06:32:29.511Z,8.30
2019-01-10T06:33:29.474Z,7.80
2019-01-10T06:34:29.421Z,8.00
2019-01-10T06:35:29.373Z,7.90
2019-01-10T06:36:29.368Z,7.70
2019-01-10T06:37:29.305Z,7.70
2019-01-10T06:38:29.231Z,7.90
2019-01-10T06:39:29.179Z,8.20
2019-01-10T06:40:29.132Z,7.60
2019-01-10T06:41:29.110Z,7.60
2019-01-10T06:42:29.107Z,7.60
2019-01-10T06:43:28.977Z,7.40
2019-01-10T06:44:28.952Z,7.80
2019-01-10T06:45:28.904Z,7.40
2019-01-10T06:46:31.087Z,7.30
2019-01-10T06:47:28.857Z,7.40
2019-01-10T06:48:28.770Z,7.70
2019-01-10T06:49:28.723Z,7.50
2019-01-10T06:50:28.654Z,7.20
2019-01-10T06:51:28.602Z,7.50
2019-01-10T06:52:28.571Z,7.50
2019-01-10T06:53:28.547Z,7.80
2019-01-10T06:54:28.484Z,7.50
2019-01-10T06:55:28.430Z,7.50
2019-01-10T06:56:28.374Z,7.70
2019-01-10T06:57:28.335Z,7.60
2019-01-10T06:58:28.292Z,7.70
2019-01-10T06:59:28.267Z,8.10
2019-01-10T07:00:28.202Z,7.50
2019-01-10T07:01:28.175Z,7.40
2019-01-10T07:02:28.090Z,7.30
2019-01-10T07:03:28.041Z,7.70
2019-01-10T07:04:28.014Z,7.90
2019-01-10T07:05:27.983Z,7.40
2019-01-10T07:06:27.938Z,7.50
2019-01-10T07:07:27.893Z,7.80
2019-01-10T07:08:27.846Z,7.20
2019-01-10T07:09:27.764Z,7.60
2019-01-10T07:10:29.030Z,8.00
2019-01-10T07:11:27.669Z,7.70
2019-01-10T07:12:27.644Z,7.60
2019-01-10T07:13:27.605Z,7.80
2019-01-10T07:14:27.523Z,7.40
2019-01-10T07:15:27.476Z,7.60
2019-01-10T07:16:27.422Z,7.80
2019-01-10T07:17:27.399Z,7.90
2019-01-10T07:18:27.353Z,7.80
2019-01-10T07:19:27.315Z,7.60
2019-01-10T07:20:27.248Z,7.80
2019-01-10T07:21:27.218Z,8.10
2019-01-10T07:22:27.145Z,7.70
2019-01-10T07:23:27.136Z,7.40
2019-01-10T07:24:27.070Z,7.90
2019-01-10T07:25:27.006Z,7.80
2019-01-10T07:26:26.968Z,10.50
2019-01-10T07:27:26.911Z,9.40
2019-01-10T07:28:26.863Z,6.80
2019-01-10T07:29:26.837Z,6.20
2019-01-10T07:30:35.491Z,5.50
2019-01-10T07:31:26.751Z,5.40
2019-01-10T07:32:26.688Z,5.50
2019-01-10T07:33:26.623Z,5.40
2019-01-10T07:34:26.649Z,5.50
2019-01-10T07:35:26.562Z,5.20
2019-01-10T07:36:26.633Z,5.20
2019-01-10T07:37:26.453Z,5.10
2019-01-10T07:38:26.413Z,4.80
2019-01-10T07:39:26.369Z,5.10
2019-01-10T07:40:26.320Z,5.50
2019-01-10T07:41:26.303Z,5.50
2019-01-10T07:42:26.244Z,4.80
2019-01-10T07:43:26.183Z,5.30
2019-01-10T07:44:26.144Z,5.20
2019-01-10T07:45:26.062Z,5.50
2019-01-10T07:46:26.032Z,5.20
2019-01-10T07:47:26.012Z,5.40
2019-01-10T07:48:25.986Z,5.50
2019-01-10T07:49:25.896Z,5.40
2019-01-10T07:50:25.960Z,5.10
2019-01-10T07:51:25.818Z,5.00
2019-01-10T07:52:25.869Z,5.40
2019-01-10T07:53:25.767Z,5.00
2019-01-10T07:54:25.640Z,5.20
2019-01-10T07:55:25.637Z,5.10
2019-01-10T07:56:25.569Z,5.20
2019-01-10T07:57:25.534Z,5.50
2019-01-10T07:58:25.475Z,5.40
2019-01-10T07:59:25.437Z,5.50
2019-01-10T08:00:25.403Z,5.70
2019-01-10T08:01:25.532Z,6.00
2019-01-10T08:02:25.338Z,6.50
2019-01-10T08:03:25.234Z,6.30
2019-01-10T08:04:25.267Z,6.10
2019-01-10T08:05:25.163Z,6.80
2019-01-10T08:06:25.381Z,6.90
2019-01-10T08:07:25.116Z,6.70
2019-01-10T08:08:25.017Z,6.50
2019-01-10T08:09:24.970Z,6.50
2019-01-10T08:10:25.007Z,6.80
2019-01-10T08:11:24.917Z,6.90
2019-01-10T08:12:24.840Z,7.10
2019-01-10T08:13:24.813Z,6.90
2019-01-10T08:14:24.711Z,6.50
2019-01-10T08:15:24.706Z,6.90
2019-01-10T08:16:24.718Z,6.50
2019-01-10T08:17:24.643Z,7.20
2019-01-10T08:18:24.598Z,6.70
2019-01-10T08:19:24.525Z,7.10
2019-01-10T08:20:24.526Z,7.10
2019-01-10T08:21:24.422Z,7.20
2019-01-10T08:22:28.069Z,6.80
2019-01-10T08:23:24.341Z,7.30
2019-01-10T08:24:24.594Z,7.20
2019-01-10T08:25:24.248Z,7.10
2019-01-10T08:26:24.204Z,6.90
2019-01-10T08:27:24.150Z,6.80
2019-01-10T08:28:34.431Z,6.90
2019-01-10T08:29:34.198Z,7.10
2019-01-10T08:30:23.983Z,6.10
2019-01-10T08:31:23.942Z,6.70
2019-01-10T08:32:23.928Z,6.60
2019-01-10T08:33:23.837Z,6.40
2019-01-10T08:34:23.914Z,6.60
2019-01-10T08:35:23.744Z,6.60
2019-01-10T08:36:32.160Z,6.70
2019-01-10T08:37:23.655Z,6.60
2019-01-10T08:38:23.594Z,6.90
2019-01-10T08:39:23.683Z,6.60
2019-01-10T08:40:23.504Z,6.50
2019-01-10T08:41:23.489Z,6.40
2019-01-10T08:42:23.513Z,6.50
2019-01-10T08:43:23.379Z,6.50
2019-01-10T08:44:23.422Z,6.50
2019-01-10T08:45:23.302Z,6.20
2019-01-10T08:46:23.272Z,6.50
2019-01-10T08:47:23.191Z,6.80
2019-01-10T08:48:23.176Z,6.20
2019-01-10T08:49:23.102Z,6.80
2019-01-10T08:50:23.084Z,6.70
2019-01-10T08:51:23.018Z,6.40
2019-01-10T08:52:22.947Z,6.80
2019-01-10T08:53:22.915Z,6.20
2019-01-10T08:54:22.859Z,7.20
2019-01-10T08:55:22.882Z,6.40
2019-01-10T08:56:23.541Z,6.40
2019-01-10T08:57:23.188Z,6.00
2019-01-10T08:58:24.664Z,6.40
2019-01-10T08:59:22.692Z,6.30
2019-01-10T09:00:22.589Z,6.20
2019-01-10T09:01:22.543Z,6.30
2019-01-10T09:02:22.505Z,6.50
2019-01-10T09:03:22.483Z,6.00
2019-01-10T09:04:22.454Z,6.40
2019-01-10T09:05:22.366Z,6.20
2019-01-10T09:06:22.300Z,6.50
2019-01-10T09:07:22.244Z,6.70
2019-01-10T09:08:22.195Z,6.90
2019-01-10T09:09:22.163Z,6.70
2019-01-10T09:10:22.139Z,6.20
2019-01-10T09:11:22.073Z,6.40
2019-01-10T09:12:22.037Z,6.50
2019-01-10T09:13:21.970Z,6.90
2019-01-10T09:14:21.923Z,6.70
2019-01-10T09:15:25.353Z,6.90
2019-01-10T09:16:21.844Z,6.40
2019-01-10T09:17:21.802Z,6.90
2019-01-10T09:18:21.753Z,6.80
2019-01-10T09:19:21.714Z,7.10
2019-01-10T09:20:21.677Z,7.00
2019-01-10T09:21:23.413Z,6.30
2019-01-10T09:22:21.567Z,6.60
2019-01-10T09:23:21.520Z,6.50
2019-01-10T09:24:21.483Z,6.80
2019-01-10T09:25:21.440Z,6.70
2019-01-10T09:26:21.402Z,6.40
2019-01-10T09:27:21.343Z,6.70
2019-01-10T09:28:21.284Z,6.40
2019-01-10T09:29:21.260Z,6.70
2019-01-10T09:30:21.184Z,7.00
2019-01-10T09:31:21.171Z,6.70
2019-01-10T09:32:21.085Z,6.10
2019-01-10T09:33:21.048Z,6.60
2019-01-10T09:34:24.941Z,6.50
2019-01-10T09:35:20.973Z,5.70
2019-01-10T09:36:20.939Z,6.80
2019-01-10T09:37:20.864Z,6.40
2019-01-10T09:38:20.811Z,6.60
2019-01-10T09:39:20.782Z,6.80
2019-01-10T09:40:20.735Z,6.50
2019-01-10T09:41:20.692Z,6.70
2019-01-10T09:42:20.674Z,6.90
2019-01-10T09:43:20.613Z,6.20
2019-01-10T09:44:20.561Z,6.50
2019-01-10T09:45:20.494Z,6.40
2019-01-10T09:46:20.484Z,7.00
2019-01-10T09:47:20.453Z,6.00
2019-01-10T09:48:20.390Z,6.70
2019-01-10T09:49:20.329Z,6.10
2019-01-10T09:50:20.270Z,6.50
2019-01-10T09:51:20.216Z,6.60
2019-01-10T09:52:20.173Z,5.90
2019-01-10T09:53:20.162Z,6.40
2019-01-10T09:54:20.084Z,6.50
2019-01-10T09:55:20.061Z,6.30
2019-01-10T09:56:19.999Z,6.60
2019-01-10T09:57:19.964Z,6.10
2019-01-10T09:58:19.928Z,6.70
2019-01-10T09:59:19.870Z,6.50
2019-01-10T10:00:19.824Z,6.70
2019-01-10T10:01:19.776Z,6.40
2019-01-10T10:02:19.743Z,6.50
2019-01-10T10:03:19.689Z,6.90
2019-01-10T10:04:19.635Z,6.70
2019-01-10T10:05:19.588Z,6.10
2019-01-10T10:06:19.565Z,6.30
2019-01-10T10:07:19.481Z,6.40
2019-01-10T10:08:19.486Z,6.20
2019-01-10T10:09:19.399Z,6.00
2019-01-10T10:10:19.353Z,6.40
2019-01-10T10:11:19.339Z,6.00
2019-01-10T10:12:19.267Z,6.20
2019-01-10T10:13:19.238Z,6.30
2019-01-10T10:14:19.194Z,5.70
2019-01-10T10:15:19.153Z,6.00
2019-01-10T10:16:19.097Z,6.10
2019-01-10T10:17:19.030Z,6.10
2019-01-10T10:18:18.997Z,5.90
2019-01-10T10:19:18.976Z,6.40
2019-01-10T10:20:18.962Z,6.10
2019-01-10T10:21:18.881Z,5.90
2019-01-10T10:22:18.805Z,5.80
2019-01-10T10:23:26.555Z,5.70
2019-01-10T10:24:18.742Z,5.80
2019-01-10T10:25:18.677Z,6.50
2019-01-10T10:26:18.649Z,6.30
2019-01-10T10:27:18.586Z,5.80
2019-01-10T10:28:18.539Z,6.50
2019-01-10T10:29:18.494Z,6.10
2019-01-10T10:30:18.463Z,6.00
2019-01-10T10:31:18.393Z,6.00
2019-01-10T10:32:18.341Z,6.00
2019-01-10T10:33:18.324Z,5.90
2019-01-10T10:34:18.261Z,6.40
2019-01-10T10:35:18.253Z,5.90
2019-01-10T10:36:18.160Z,6.20
2019-01-10T10:37:18.146Z,5.90
2019-01-10T10:38:18.092Z,6.40
2019-01-10T10:39:18.018Z,5.80
2019-01-10T10:40:18.058Z,6.50
2019-01-10T10:41:17.956Z,6.20
2019-01-10T10:42:17.896Z,5.80
2019-01-10T10:43:17.859Z,6.00
2019-01-10T10:44:17.803Z,5.70
2019-01-10T10:45:17.790Z,6.30
2019-01-10T10:46:17.719Z,6.00
2019-01-10T10:47:17.657Z,6.40
2019-01-10T10:48:17.641Z,6.30
2019-01-10T10:49:17.629Z,6.20
2019-01-10T10:50:17.548Z,6.70
2019-01-10T10:51:17.516Z,6.40
2019-01-10T10:52:17.440Z,6.00
2019-01-10T10:53:17.395Z,6.30
2019-01-10T10:54:17.368Z,6.60
2019-01-10T10:55:17.333Z,6.50
2019-01-10T10:56:17.292Z,6.00
2019-01-10T10:57:17.262Z,6.70
2019-01-10T10:58:17.207Z,6.50
2019-01-10T10:59:17.126Z,6.50
2019-01-10T11:00:17.112Z,6.80
2019-01-10T11:01:17.035Z,7.00
2019-01-10T11:02:17.029Z,6.60
2019-01-10T11:03:16.941Z,6.70
2019-01-10T11:04:16.899Z,7.00
2019-01-10T11:05:16.854Z,6.80
2019-01-10T11:06:16.814Z,6.70
2019-01-10T11:07:16.779Z,6.50
2019-01-10T11:08:16.703Z,6.30
2019-01-10T11:09:16.676Z,6.80
2019-01-10T11:10:16.630Z,6.90
2019-01-10T11:11:16.588Z,6.50
2019-01-10T11:12:16.559Z,6.90
2019-01-10T11:13:16.525Z,6.70
2019-01-10T11:14:16.435Z,6.30
2019-01-10T11:15:16.401Z,6.60
2019-01-10T11:16:16.346Z,6.50
2019-01-10T11:17:16.342Z,6.70
2019-01-10T11:18:16.289Z,7.20
2019-01-10T11:19:16.211Z,7.00
2019-01-10T11:20:16.183Z,6.90
2019-01-10T11:21:16.130Z,6.70
2019-01-10T11:22:16.083Z,6.80
2019-01-10T11:23:16.063Z,6.80
2019-01-10T11:24:15.996Z,6.80
2019-01-10T11:25:15.959Z,6.90
2019-01-10T11:26:15.927Z,7.10
2019-01-10T11:27:15.874Z,7.20
2019-01-10T11:28:15.872Z,7.10
2019-01-10T11:29:15.768Z,7.60
2019-01-10T11:30:15.719Z,7.70
2019-01-10T11:31:15.669Z,7.80
2019-01-10T11:32:15.639Z,7.80
2019-01-10T11:33:15.638Z,8.10
2019-01-10T11:34:15.531Z,8.10
2019-01-10T11:35:15.496Z,7.70
2019-01-10T11:36:15.451Z,7.50
2019-01-10T11:37:15.400Z,7.60
2019-01-10T11:38:15.425Z,7.20
2019-01-10T11:39:15.342Z,7.70
2019-01-10T11:40:15.296Z,7.40
2019-01-10T11:41:15.235Z,7.40
2019-01-10T11:42:15.180Z,7.40
2019-01-10T11:43:15.174Z,7.40
2019-01-10T11:44:15.122Z,7.80
2019-01-10T11:45:15.066Z,8.30
2019-01-10T11:46:19.804Z,7.60
2019-01-10T11:47:14.960Z,7.90
2019-01-10T11:48:14.897Z,7.60
2019-01-10T11:49:14.873Z,7.20
2019-01-10T11:50:14.831Z,7.20
2019-01-10T11:51:14.797Z,7.50
2019-01-10T11:52:14.772Z,7.80
2019-01-10T11:53:14.683Z,7.40
2019-01-10T11:54:14.643Z,6.90
2019-01-10T11:55:14.601Z,7.50
2019-01-10T11:56:14.557Z,7.40
2019-01-10T11:57:14.529Z,6.90
2019-01-10T11:58:14.479Z,7.20
2019-01-10T11:59:14.458Z,6.80
2019-01-10T12:00:14.418Z,7.10
2019-01-10T12:01:14.313Z,7.20
2019-01-10T12:02:14.285Z,7.10
2019-01-10T12:03:14.241Z,6.60
2019-01-10T12:04:14.186Z,6.20
2019-01-10T12:05:14.142Z,6.60
2019-01-10T12:06:14.113Z,6.90
2019-01-10T12:07:14.051Z,6.40
2019-01-10T12:08:14.037Z,6.90
2019-01-10T12:09:13.991Z,6.40
2019-01-10T12:10:13.955Z,6.80
2019-01-10T12:11:13.872Z,6.50
2019-01-10T12:12:13.829Z,7.00
2019-01-10T12:13:13.777Z,7.00
2019-01-10T12:14:13.756Z,6.20
2019-01-10T12:15:13.720Z,6.60
2019-01-10T12:16:13.679Z,6.50
2019-01-10T12:17:13.625Z,6.50
2019-01-10T12:18:13.566Z,6.00
2019-01-10T12:19:13.523Z,6.30
2019-01-10T12:20:13.472Z,5.80
2019-01-10T12:21:13.458Z,6.50
2019-01-10T12:22:13.382Z,6.40
2019-01-10T12:23:13.342Z,6.20
2019-01-10T12:24:13.295Z,6.50
2019-01-10T12:25:13.262Z,6.10
2019-01-10T12:26:13.202Z,7.10
2019-01-10T12:27:13.180Z,14.80
2019-01-10T12:28:13.128Z,6.70
2019-01-10T12:29:13.058Z,5.30
2019-01-10T12:30:13.022Z,5.80
2019-01-10T12:31:12.976Z,6.10
2019-01-10T12:32:12.931Z,6.20
2019-01-10T12:33:12.900Z,6.40
2019-01-10T12:34:12.852Z,6.40
2019-01-10T12:35:12.818Z,6.30
2019-01-10T12:36:12.754Z,6.00
2019-01-10T12:37:12.740Z,5.70
2019-01-10T12:38:12.687Z,6.10
2019-01-10T12:39:12.630Z,6.50
2019-01-10T12:40:12.559Z,6.00
2019-01-10T12:41:12.574Z,6.30
2019-01-10T12:42:12.478Z,6.90
2019-01-10T12:43:12.484Z,5.70
2019-01-10T12:44:12.387Z,6.10
2019-01-10T12:45:12.350Z,6.00
2019-01-10T12:46:12.301Z,6.00
2019-01-10T12:47:12.291Z,6.30
2019-01-10T12:48:12.239Z,6.30
2019-01-10T12:49:12.169Z,5.90
2019-01-10T12:50:12.119Z,6.20
2019-01-10T12:51:12.070Z,6.10
2019-01-10T12:52:12.040Z,6.10
2019-01-10T12:53:12.003Z,6.40
2019-01-10T12:54:11.954Z,6.10
2019-01-10T12:55:11.917Z,6.20
2019-01-10T12:56:11.855Z,6.60
2019-01-10T12:57:11.822Z,6.10
2019-01-10T12:58:11.784Z,6.50
2019-01-10T12:59:11.736Z,6.40
2019-01-10T13:00:11.719Z,6.10
2019-01-10T13:01:11.642Z,6.30
2019-01-10T13:02:11.603Z,6.70
2019-01-10T13:03:11.589Z,6.70
2019-01-10T13:04:11.543Z,7.30
2019-01-10T13:05:11.451Z,6.60
2019-01-10T13:06:11.425Z,6.40
2019-01-10T13:07:11.403Z,6.80
2019-01-10T13:08:11.363Z,6.50
2019-01-10T13:09:11.379Z,6.70
2019-01-10T13:10:11.224Z,6.60
2019-01-10T13:11:11.199Z,7.30
2019-01-10T13:12:11.143Z,6.90
2019-01-10T13:13:11.123Z,6.90
2019-01-10T13:14:11.107Z,6.70
2019-01-10T13:15:11.008Z,6.80
2019-01-10T13:16:10.966Z,6.60
2019-01-10T13:17:10.919Z,6.70
2019-01-10T13:18:10.903Z,6.60
2019-01-10T13:19:10.823Z,6.50